Time;durP1;ratioP1;P1;durP2;ratioP2;P2;SDS_P1;SDS_P2;PMS_P1;PMS_P2;Temp;Humidity;BMP_temperature;BMP_pressure;BME280_temperature;BME280_humidity;BME280_pressure;Samples;Min_cycle;Max_cycle;Signal;HPM_P1;HPM_P2
2022/05/26 00:02:59;;;;;;;8.40;4.40;;;;;;;8.30;100.00;99643.36;105096;1271;75794;-65
2022/05/26 00:05:46;;;;;;;9.20;4.50;;;;;;;8.30;100.00;99639.80;104722;1274;69379;-64
2022/05/26 00:08:36;;;;;;;10.60;4.90;;;;;;;8.30;100.00;99639.10;105096;1271;73460;-65
2022/05/26 00:11:28;;;;;;;9.90;4.60;;;;;;;8.31;100.00;99639.17;104836;1271;61264;-63
2022/05/26 00:14:15;;;;;;;12.30;5.30;;;;;;;8.32;100.00;99642.62;104857;1271;60352;-68
2022/05/26 00:17:01;;;;;;;11.80;4.70;;;;;;;8.32;100.00;99638.02;105043;1271;74686;-67
2022/05/26 00:19:49;;;;;;;9.60;5.40;;;;;;;8.33;100.00;99636.41;104871;1271;69696;-68
2022/05/26 00:22:36;;;;;;;9.00;4.90;;;;;;;8.31;100.00;99633.14;104730;1271;73164;-68
2022/05/26 00:25:23;;;;;;;10.50;5.40;;;;;;;8.30;100.00;99631.43;105286;1271;59974;-69
2022/05/26 00:28:09;;;;;;;11.20;6.20;;;;;;;8.27;100.00;99621.63;105235;1271;61389;-69
2022/05/26 00:30:56;;;;;;;11.40;6.00;;;;;;;8.33;100.00;99623.67;105056;1271;74932;-68
2022/05/26 00:33:43;;;;;;;10.10;5.60;;;;;;;8.34;100.00;99621.48;105121;1270;68906;-67
2022/05/26 00:36:39;;;;;;;11.50;5.40;;;;;;;8.38;100.00;99622.95;104893;1271;72338;-67
2022/05/26 00:39:27;;;;;;;10.40;5.40;;;;;;;8.41;100.00;99623.40;104918;1271;59655;-66
2022/05/26 00:42:13;;;;;;;10.70;4.90;;;;;;;8.43;100.00;99622.54;105047;1271;60519;-66
2022/05/26 00:45:00;;;;;;;9.20;4.70;;;;;;;8.46;100.00;99622.84;105059;1271;75026;-66
2022/05/26 00:47:48;;;;;;;9.30;4.90;;;;;;;8.50;100.00;99626.15;104857;1274;69549;-66
2022/05/26 00:50:42;;;;;;;8.80;4.60;;;;;;;8.49;100.00;99627.25;104931;1271;74451;-68
2022/05/26 00:53:39;;;;;;;9.10;5.00;;;;;;;8.49;100.00;99624.25;105081;1271;61386;-66
2022/05/26 00:56:38;;;;;;;9.90;5.00;;;;;;;8.50;100.00;99624.02;105005;1271;60014;-68
2022/05/26 00:59:59;;;;;;;13.80;5.70;;;;;;;8.50;100.00;99620.13;105244;1271;74631;-68
2022/05/26 01:02:59;;;;;;;12.70;5.70;;;;;;;8.50;100.00;99621.69;107702;1271;68598;-65
2022/05/26 01:06:07;;;;;;;9.80;4.60;;;;;;;8.53;100.00;99613.89;107914;1271;73431;-68
2022/05/26 01:09:05;;;;;;;10.20;5.60;;;;;;;8.56;100.00;99606.02;104916;1271;59754;-65
2022/05/26 01:11:54;;;;;;;11.40;5.90;;;;;;;8.59;100.00;99603.86;105048;1271;59687;-67
2022/05/26 01:14:50;;;;;;;13.10;6.30;;;;;;;8.62;100.00;99606.30;105120;1271;73783;-66
2022/05/26 01:18:17;;;;;;;10.30;5.40;;;;;;;8.64;100.00;99606.71;104940;1271;68551;-66
2022/05/26 01:21:38;;;;;;;10.20;5.60;;;;;;;8.65;100.00;99604.95;105029;1271;74168;-68
2022/05/26 01:24:33;;;;;;;13.50;6.30;;;;;;;8.68;100.00;99609.71;104836;1271;59783;-69
2022/05/26 01:27:31;;;;;;;10.80;5.70;;;;;;;8.69;100.00;99612.30;105059;1271;61703;-67
2022/05/26 01:30:25;;;;;;;10.40;5.60;;;;;;;8.71;100.00;99614.29;105105;1271;73634;-69
2022/05/26 01:33:48;;;;;;;13.60;5.30;;;;;;;8.73;100.00;99613.77;105149;1271;66517;-71
2022/05/26 01:37:08;;;;;;;10.70;4.70;;;;;;;8.75;100.00;99601.98;105002;1271;73437;-69
2022/05/26 01:40:18;;;;;;;10.00;5.60;;;;;;;8.75;100.00;99594.86;105202;1271;59740;-70
2022/05/26 01:43:42;;;;;;;9.90;5.10;;;;;;;8.76;100.00;99595.27;105024;1271;59836;-71
2022/05/26 01:46:40;;;;;;;9.30;4.40;;;;;;;8.75;100.00;99603.38;105089;1271;73680;-68
2022/05/26 01:49:45;;;;;;;9.30;4.40;;;;;;;8.72;100.00;99593.65;105021;1271;68519;-69
2022/05/26 01:52:52;;;;;;;9.40;5.10;;;;;;;8.72;100.00;99591.77;104978;1271;74310;-68
2022/05/26 01:56:07;;;;;;;9.30;4.60;;;;;;;8.72;100.00;99585.93;104759;1271;59781;-67
2022/05/26 01:59:14;;;;;;;9.00;4.50;;;;;;;8.69;100.00;99575.17;104917;1271;62189;-66
2022/05/26 02:02:11;;;;;;;10.00;4.80;;;;;;;8.67;100.00;99563.46;104998;1271;74271;-67
2022/05/26 02:05:22;;;;;;;13.40;4.60;;;;;;;8.67;100.00;99557.06;104926;1271;68455;-66
2022/05/26 02:08:36;;;;;;;9.80;4.90;;;;;;;8.69;100.00;99553.26;104875;1271;74410;-67
2022/05/26 02:11:24;;;;;;;8.90;4.10;;;;;;;8.70;100.00;99544.52;105295;1271;59676;-65
2022/05/26 02:14:17;;;;;;;8.40;3.90;;;;;;;8.69;100.00;99539.07;105018;1271;59641;-68
2022/05/26 02:17:22;;;;;;;8.40;3.90;;;;;;;8.69;100.00;99539.75;105085;1271;74986;-67
2022/05/26 02:20:33;;;;;;;8.70;3.90;;;;;;;8.70;100.00;99537.56;105036;1271;69577;-67
2022/05/26 02:23:23;;;;;;;8.00;3.70;;;;;;;8.73;100.00;99536.13;104823;1274;72100;-67
2022/05/26 02:26:10;;;;;;;8.40;3.90;;;;;;;8.76;100.00;99529.54;105001;1271;59683;-68
2022/05/26 02:32:05;;;;;;;8.30;4.40;;;;;;;8.86;100.00;99534.59;105212;1271;74569;-68
2022/05/26 02:34:56;;;;;;;9.70;3.60;;;;;;;8.91;100.00;99538.04;104843;1271;69821;-69
2022/05/26 02:37:47;;;;;;;8.30;3.70;;;;;;;8.95;100.00;99536.17;104969;1271;73714;-66
2022/05/26 02:40:34;;;;;;;7.90;3.70;;;;;;;8.99;100.00;99534.44;105152;1271;60187;-67
2022/05/26 02:43:27;;;;;;;7.40;3.50;;;;;;;9.02;100.00;99529.08;105010;1271;59621;-65
2022/05/26 02:46:42;;;;;;;9.00;4.00;;;;;;;9.04;100.00;99524.08;104924;1271;73824;-67
2022/05/26 02:49:39;;;;;;;8.80;3.70;;;;;;;9.07;100.00;99516.48;105122;1271;67318;-66
2022/05/26 02:52:34;;;;;;;8.20;4.30;;;;;;;9.11;100.00;99512.46;104931;1271;74307;-69
2022/05/26 02:56:04;;;;;;;8.00;3.90;;;;;;;9.14;99.75;99514.99;105058;1271;59768;-67
2022/05/26 02:59:05;;;;;;;7.90;3.50;;;;;;;9.20;99.65;99506.70;105036;1274;59980;-67
2022/05/26 03:02:10;;;;;;;9.50;4.20;;;;;;;9.26;99.24;99508.20;104841;1271;74625;-67
2022/05/26 03:05:34;;;;;;;8.10;3.80;;;;;;;9.31;98.82;99508.34;104936;1271;69664;-69
2022/05/26 03:08:27;;;;;;;7.80;4.00;;;;;;;9.36;98.02;99503.48;104833;1271;73480;-67
2022/05/26 03:11:20;;;;;;;7.70;3.50;;;;;;;9.39;97.68;99503.06;105079;1270;59701;-69
2022/05/26 03:14:06;;;;;;;7.70;3.70;;;;;;;9.41;97.29;99497.05;104893;1271;59658;-69
2022/05/26 03:16:53;;;;;;;8.90;3.70;;;;;;;9.43;96.99;99494.46;105057;1271;72633;-69
2022/05/26 03:19:40;;;;;;;7.20;3.40;;;;;;;9.45;96.38;99493.23;104779;1271;68745;-67
2022/05/26 03:22:26;;;;;;;7.30;3.50;;;;;;;9.48;96.15;99487.45;105043;1271;71430;-67
2022/05/26 03:25:13;;;;;;;7.60;3.60;;;;;;;9.52;95.55;99483.76;105105;1271;61585;-68
2022/05/26 03:28:00;;;;;;;8.40;3.40;;;;;;;9.59;95.36;99483.62;105048;1271;60836;-69
2022/05/26 03:30:46;;;;;;;7.60;3.60;;;;;;;9.65;94.80;99482.58;105161;1271;73519;-70
2022/05/26 03:40:46;;;;;;;6.20;2.60;;;;;;;9.73;94.31;99481.53;105111;1271;67406;-69
2022/05/26 03:42:51;;;;;;;7.60;3.30;;;;;;;9.94;93.32;99468.47;105227;1271;62007;-70
2022/05/26 03:45:38;;;;;;;7.30;3.30;;;;;;;9.98;92.75;99470.46;104948;1271;74706;-69
2022/05/26 03:48:28;;;;;;;7.40;3.20;;;;;;;10.02;92.47;99471.87;104965;1271;68148;-70
2022/05/26 03:51:14;;;;;;;7.50;3.10;;;;;;;10.05;92.59;99476.40;104866;1271;74789;-67
2022/05/26 03:54:01;;;;;;;8.70;3.80;;;;;;;10.07;92.32;99481.04;105024;1271;61195;-70
2022/05/26 03:56:47;;;;;;;10.70;3.80;;;;;;;10.09;92.22;99473.77;104608;1271;62099;-68
2022/05/26 03:59:34;;;;;;;7.80;3.60;;;;;;;10.12;92.19;99471.36;105691;1271;74724;-69
2022/05/26 04:02:22;;;;;;;7.00;2.80;;;;;;;10.14;91.42;99474.35;104978;1271;69692;-69
2022/05/26 04:05:11;;;;;;;7.30;2.80;;;;;;;10.17;91.50;99475.52;104952;1271;73471;-70
2022/05/26 04:07:57;;;;;;;7.70;3.00;;;;;;;10.21;91.05;99474.23;104946;1271;59642;-70
2022/05/26 04:10:44;;;;;;;6.90;3.10;;;;;;;10.26;90.56;99470.38;105011;1271;60478;-70
2022/05/26 04:13:31;;;;;;;7.00;2.90;;;;;;;10.29;90.65;99468.86;104841;1271;74036;-68
2022/05/26 04:16:19;;;;;;;8.60;3.30;;;;;;;10.30;91.20;99468.95;105546;1270;69348;-69
2022/05/26 04:19:06;;;;;;;8.30;3.00;;;;;;;10.31;90.99;99466.55;105443;1271;74361;-67
2022/05/26 04:24:59;;;;;;;7.30;2.80;;;;;;;10.34;91.03;99461.30;105388;1271;61062;-68
2022/05/26 04:27:46;;;;;;;6.50;3.10;;;;;;;10.36;90.96;99462.45;104868;1271;73752;-67
2022/05/26 04:30:32;;;;;;;8.80;2.90;;;;;;;10.38;90.93;99460.62;105030;1271;69452;-70
2022/05/26 04:33:20;;;;;;;7.70;3.00;;;;;;;10.43;90.84;99453.17;105401;1270;73288;-69
2022/05/26 04:36:07;;;;;;;7.10;3.20;;;;;;;10.50;90.82;99450.57;105105;1271;60622;-68
2022/05/26 04:38:53;;;;;;;6.90;3.20;;;;;;;10.60;90.76;99445.99;105092;1271;62056;-64
2022/05/26 04:41:43;;;;;;;7.00;3.10;;;;;;;10.75;90.37;99443.13;104999;1271;73430;-66
2022/05/26 04:44:34;;;;;;;6.60;3.10;;;;;;;10.96;89.60;99439.31;104891;1271;69888;-68
2022/05/26 04:47:21;;;;;;;8.20;3.20;;;;;;;11.11;88.20;99439.04;104940;1271;72398;-68
2022/05/26 04:50:09;;;;;;;7.50;3.40;;;;;;;11.20;88.05;99442.23;105170;1271;61215;-67
2022/05/26 04:52:55;;;;;;;7.10;2.90;;;;;;;11.33;87.67;99441.48;104783;1271;60496;-68
2022/05/26 04:55:42;;;;;;;10.50;3.20;;;;;;;11.42;86.89;99443.83;104661;1274;73817;-69
2022/05/26 04:58:28;;;;;;;6.90;2.90;;;;;;;11.48;86.38;99436.52;104945;1270;69482;-69
2022/05/26 05:01:17;;;;;;;7.50;3.30;;;;;;;11.53;86.29;99437.13;104866;1271;74734;-72
2022/05/26 05:04:04;;;;;;;7.90;3.20;;;;;;;11.58;86.15;99441.86;104828;1271;61345;-71
2022/05/26 05:06:53;;;;;;;6.50;2.80;;;;;;;11.65;86.10;99438.70;105092;1271;61324;-71
2022/05/26 05:09:39;;;;;;;7.40;3.60;;;;;;;11.72;85.76;99434.71;104862;1271;74726;-71
2022/05/26 05:12:28;;;;;;;8.10;3.50;;;;;;;11.84;85.58;99434.83;105200;1274;68226;-72
2022/05/26 05:15:24;;;;;;;8.80;3.90;;;;;;;12.34;84.89;99431.83;105289;1271;493945;-73
2022/05/26 05:18:10;;;;;;;6.70;3.20;;;;;;;13.40;80.70;99425.63;105074;1271;59659;-72
2022/05/26 05:21:04;;;;;;;7.50;2.90;;;;;;;14.30;76.21;99423.77;104875;1271;61388;-69
2022/05/26 05:24:00;;;;;;;9.50;3.70;;;;;;;14.68;73.15;99418.73;104858;1271;74771;-68
2022/05/26 05:26:52;;;;;;;7.60;2.90;;;;;;;14.78;71.35;99421.40;104870;1271;68557;-66
2022/05/26 05:29:41;;;;;;;6.80;3.30;;;;;;;15.22;69.79;99416.59;105129;1271;71788;-70
2022/05/26 05:32:58;;;;;;;7.50;3.10;;;;;;;15.28;69.15;99415.09;104899;1271;59883;-68
2022/05/26 05:35:53;;;;;;;6.80;3.00;;;;;;;14.96;68.70;99417.54;104946;1271;61095;-73
2022/05/26 05:38:40;;;;;;;6.70;2.70;;;;;;;14.62;69.57;99418.61;104997;1271;70793;-75
2022/05/26 05:41:28;;;;;;;8.60;3.30;;;;;;;14.34;70.49;99420.65;104838;1271;67649;-72
2022/05/26 05:44:15;;;;;;;8.20;2.80;;;;;;;14.26;70.97;99419.33;104801;1271;73238;-71
2022/05/26 05:47:02;;;;;;;8.90;3.50;;;;;;;14.94;70.39;99415.10;104925;1271;59688;-72
2022/05/26 05:49:50;;;;;;;6.70;2.90;;;;;;;16.29;66.89;99407.12;105165;1273;60430;-72
2022/05/26 05:52:38;;;;;;;8.70;3.80;;;;;;;17.99;59.16;99394.71;105251;1271;74559;-71
2022/05/26 05:55:26;;;;;;;6.70;2.10;;;;;;;19.55;55.22;99387.86;105084;1271;68474;-73
2022/05/26 05:58:15;;;;;;;6.10;2.10;;;;;;;20.43;50.85;99383.41;105299;1270;73323;-73
2022/05/26 06:01:02;;;;;;;7.60;2.00;;;;;;;20.46;50.62;99377.19;104896;1271;59654;-72
2022/05/26 06:03:48;;;;;;;6.10;2.20;;;;;;;20.09;50.19;99379.75;104818;1274;61954;-74
2022/05/26 06:06:42;;;;;;;5.80;1.90;;;;;;;19.54;51.06;99373.81;105256;1271;73162;-70
2022/05/26 06:09:28;;;;;;;7.60;2.40;;;;;;;19.22;51.44;99371.86;104978;1271;68143;-74
2022/05/26 06:12:16;;;;;;;6.20;2.20;;;;;;;19.19;50.61;99373.16;104968;1271;72913;-74
2022/05/26 06:15:04;;;;;;;7.50;2.00;;;;;;;20.42;47.48;99373.66;104953;1271;60021;-75
2022/05/26 06:17:51;;;;;;;5.80;1.90;;;;;;;20.76;47.72;99365.78;104893;1271;61946;-75
2022/05/26 06:20:38;;;;;;;6.00;2.00;;;;;;;20.55;46.40;99367.25;104916;1271;71878;-70
2022/05/26 06:23:24;;;;;;;7.20;2.00;;;;;;;20.02;47.48;99365.29;105174;1271;67427;-71
2022/05/26 06:26:12;;;;;;;7.10;1.80;;;;;;;19.52;49.07;99360.39;105238;1271;73323;-71
2022/05/26 06:38:20;;;;;;;7.50;2.40;;;;;;;17.76;53.85;99358.94;105279;1271;69304;-72
2022/05/26 06:44:15;;;;;;;7.20;3.00;;;;;;;17.35;55.85;99355.55;104998;1271;60611;-70
2022/05/26 06:47:02;;;;;;;7.20;2.80;;;;;;;17.06;56.73;99353.25;105016;1271;60101;-69
2022/05/26 06:49:50;;;;;;;8.80;2.50;;;;;;;17.12;57.51;99348.77;105093;1271;73021;-72
2022/05/26 06:52:37;;;;;;;9.40;2.90;;;;;;;18.10;55.00;99348.00;105024;1271;67018;-70
2022/05/26 06:55:24;;;;;;;6.70;2.30;;;;;;;19.65;51.60;99341.93;105100;1271;73149;-69
2022/05/26 06:58:11;;;;;;;5.80;2.10;;;;;;;21.65;46.24;99335.21;105142;1271;59921;-75
2022/05/26 07:00:58;;;;;;;6.50;2.10;;;;;;;23.15;42.47;99322.30;105109;1271;62007;-70
2022/05/26 07:03:44;;;;;;;7.00;2.20;;;;;;;24.71;39.61;99316.91;105011;1271;72844;-72
2022/05/26 07:06:31;;;;;;;6.00;2.00;;;;;;;25.47;36.62;99310.57;105144;1271;69626;-72
2022/05/26 07:09:21;;;;;;;14.70;2.30;;;;;;;24.75;37.18;99321.06;104936;1271;74529;-72
2022/05/26 07:12:09;;;;;;;7.00;2.70;;;;;;;25.38;37.11;99317.91;105105;1271;59737;-70
2022/05/26 07:14:57;;;;;;;7.00;2.50;;;;;;;26.56;33.88;99311.01;105281;1271;61760;-69
2022/05/26 07:17:43;;;;;;;8.30;2.10;;;;;;;27.69;32.68;99306.38;105548;1271;73602;-70
2022/05/26 07:20:30;;;;;;;8.70;4.00;;;;;;;28.04;30.50;99298.15;105155;1271;69665;-72
2022/05/26 07:23:16;;;;;;;7.70;2.10;;;;;;;28.57;29.19;99289.39;104968;1271;73256;-71
2022/05/26 07:26:05;;;;;;;6.00;1.50;;;;;;;29.23;29.14;99291.70;105117;1270;59863;-73
2022/05/26 07:28:52;;;;;;;8.00;3.40;;;;;;;28.20;29.40;99289.89;104824;1271;61101;-73
2022/05/26 07:31:39;;;;;;;8.50;3.60;;;;;;;26.41;32.07;99289.61;104798;1271;73787;-72
2022/05/26 07:34:35;;;;;;;8.00;2.70;;;;;;;25.04;34.33;99294.84;105011;1271;68579;-69
2022/05/26 07:43:35;;;;;;;9.80;4.30;;;;;;;25.85;33.93;99286.17;105215;1271;61499;-70
2022/05/26 07:46:26;;;;;;;9.70;4.90;;;;;;;26.65;31.98;99283.00;105109;1271;73873;-71
2022/05/26 07:49:12;;;;;;;8.50;4.10;;;;;;;26.88;31.41;99288.92;105291;1271;69434;-71
2022/05/26 07:52:01;;;;;;;7.00;1.80;;;;;;;26.61;32.19;99282.20;105321;1271;71464;-71
2022/05/26 07:54:48;;;;;;;9.60;5.00;;;;;;;25.03;34.01;99288.91;104929;1271;59662;-71
2022/05/26 07:57:36;;;;;;;7.20;2.80;;;;;;;23.52;36.66;99296.48;105013;1270;60599;-71
2022/05/26 08:00:23;;;;;;;7.10;2.00;;;;;;;22.28;39.26;99299.98;105068;1271;72303;-72
2022/05/26 08:03:09;;;;;;;8.00;2.10;;;;;;;21.13;42.38;99307.53;105237;1271;65858;-72
2022/05/26 08:05:56;;;;;;;7.60;2.40;;;;;;;20.10;45.14;99308.05;105147;1271;73567;-72
2022/05/26 08:08:43;;;;;;;8.80;2.30;;;;;;;19.38;47.92;99320.63;105094;1271;59777;-69
2022/05/26 08:11:30;;;;;;;7.30;2.90;;;;;;;18.72;51.99;99329.33;105177;1271;60074;-72
2022/05/26 08:14:16;;;;;;;10.40;5.40;;;;;;;18.03;56.17;99335.41;104870;1271;71847;-72
2022/05/26 08:17:04;;;;;;;8.00;2.70;;;;;;;17.51;59.76;99340.75;104911;1271;69537;-71
2022/05/26 08:19:52;;;;;;;9.70;5.30;;;;;;;16.98;62.21;99348.93;104857;1271;73802;-69
2022/05/26 08:22:40;;;;;;;6.60;2.90;;;;;;;16.42;65.46;99354.27;105271;1271;59636;-71
2022/05/26 08:25:27;;;;;;;15.40;9.20;;;;;;;15.92;67.72;99353.20;105117;1271;59627;-72
2022/05/26 08:28:14;;;;;;;8.70;3.10;;;;;;;15.63;70.43;99350.84;104918;1271;74842;-70
2022/05/26 08:31:01;;;;;;;7.20;2.90;;;;;;;15.18;72.93;99359.48;105089;1271;69364;-74
2022/05/26 08:33:48;;;;;;;9.10;3.30;;;;;;;14.84;74.96;99360.29;104964;1272;74589;-70
2022/05/26 08:36:35;;;;;;;8.60;3.00;;;;;;;14.54;76.72;99361.45;105038;1269;59750;-69
2022/05/26 08:39:22;;;;;;;6.90;2.70;;;;;;;14.39;77.71;99362.27;105169;1271;59721;-69
2022/05/26 08:42:29;;;;;;;8.10;2.70;;;;;;;14.30;79.42;99362.71;105007;1271;72491;-71
2022/05/26 08:45:23;;;;;;;7.00;2.80;;;;;;;14.34;79.61;99365.02;105515;1271;67760;-72
2022/05/26 08:48:50;;;;;;;6.90;3.10;;;;;;;14.45;80.68;99361.34;104993;1271;73615;-72
2022/05/26 08:52:02;;;;;;;9.10;3.70;;;;;;;14.57;79.85;99360.95;104970;1271;59765;-73
2022/05/26 08:55:03;;;;;;;6.50;3.10;;;;;;;14.74;79.58;99363.50;104908;1271;61940;-72
2022/05/26 08:58:36;;;;;;;10.20;4.20;;;;;;;14.75;78.90;99367.29;105072;1271;74767;-72
2022/05/26 09:01:28;;;;;;;11.90;6.00;;;;;;;14.61;79.23;99366.63;104504;1277;68631;-71
2022/05/26 09:04:16;;;;;;;8.60;4.40;;;;;;;14.54;79.94;99366.09;104428;1280;73733;-74
2022/05/26 09:13:43;;;;;;;11.00;4.20;;;;;;;14.99;77.15;99363.35;104657;1280;73696;-77
2022/05/26 09:16:42;;;;;;;8.70;3.50;;;;;;;15.02;77.39;99357.70;104506;1277;69680;-74
2022/05/26 09:19:42;;;;;;;11.90;3.50;;;;;;;15.37;76.40;99361.71;104410;1280;74334;-77
2022/05/26 09:22:45;;;;;;;8.50;3.10;;;;;;;16.06;73.59;99362.20;104400;1277;59554;-75
2022/05/26 09:26:07;;;;;;;9.90;2.80;;;;;;;16.91;70.81;99359.62;104504;1277;62260;-75
2022/05/26 09:28:56;;;;;;;7.60;2.60;;;;;;;18.23;65.83;99353.48;104714;1277;72334;-73
2022/05/26 09:31:49;;;;;;;7.90;2.30;;;;;;;19.29;61.21;99351.21;104509;1277;68469;-73
2022/05/26 09:34:39;;;;;;;6.40;2.00;;;;;;;19.26;59.18;99348.54;104570;1277;73590;-74
2022/05/26 09:37:40;;;;;;;6.90;2.00;;;;;;;19.68;58.57;99358.92;104847;1271;59678;-74
2022/05/26 09:40:35;;;;;;;6.40;1.80;;;;;;;21.00;53.09;99362.46;105445;1271;61528;-74
2022/05/26 09:43:28;;;;;;;8.60;1.80;;;;;;;22.15;49.09;99358.45;105317;1271;73142;-74
2022/05/26 09:46:16;;;;;;;7.00;1.80;;;;;;;22.73;47.24;99346.31;105258;1271;69569;-74
2022/05/26 09:49:12;;;;;;;6.70;1.70;;;;;;;22.87;45.78;99334.52;105271;1271;73378;-74
2022/05/26 09:52:17;;;;;;;6.40;1.50;;;;;;;23.43;44.47;99338.41;105242;1271;59896;-76
2022/05/26 09:55:10;;;;;;;8.70;1.40;;;;;;;23.65;43.66;99334.13;105322;1274;62022;-76
2022/05/26 09:58:07;;;;;;;6.40;1.60;;;;;;;24.30;42.54;99336.18;105189;1271;74806;-75
2022/05/26 10:00:58;;;;;;;5.80;1.30;;;;;;;24.76;41.51;99340.85;105092;1271;67562;-72
2022/05/26 10:04:00;;;;;;;6.20;1.30;;;;;;;25.36;39.20;99337.45;105145;1271;72453;-75
2022/05/26 10:06:59;;;;;;;8.80;2.60;;;;;;;25.33;37.97;99333.97;104966;1271;59694;-73
2022/05/26 10:10:12;;;;;;;5.40;1.50;;;;;;;25.42;38.51;99339.89;105052;1271;61013;-73
2022/05/26 10:13:30;;;;;;;7.20;1.70;;;;;;;25.05;38.73;99343.81;105309;1271;73801;-72
2022/05/26 10:16:40;;;;;;;8.30;2.90;;;;;;;24.49;39.36;99342.70;105138;1271;67874;-69
2022/05/26 10:20:03;;;;;;;6.10;1.50;;;;;;;24.07;39.80;99343.52;105072;1271;73361;-72
2022/05/26 10:23:41;;;;;;;7.70;1.60;;;;;;;22.93;41.64;99343.79;105271;1271;59726;-73
2022/05/26 10:26:49;;;;;;;7.40;2.00;;;;;;;22.43;42.85;99344.77;105020;1271;59732;-71
2022/05/26 10:30:00;;;;;;;7.20;1.70;;;;;;;23.20;42.27;99351.73;105076;1271;73597;-71
2022/05/26 10:33:32;;;;;;;6.80;1.50;;;;;;;23.01;40.46;99343.54;105041;1271;68103;-69
2022/05/26 10:37:19;;;;;;;6.30;1.50;;;;;;;21.92;41.45;99344.50;104920;1271;73548;-67
2022/05/26 10:40:50;;;;;;;7.80;1.60;;;;;;;21.48;42.24;99356.52;105205;1270;59636;-68
2022/05/26 10:43:51;;;;;;;7.00;1.50;;;;;;;22.27;41.27;99347.81;104957;1271;59659;-68
2022/05/26 10:46:45;;;;;;;7.00;2.60;;;;;;;22.38;40.42;99350.48;105349;1271;73917;-68
2022/05/26 10:49:46;;;;;;;7.80;2.10;;;;;;;22.59;40.25;99349.38;105050;1271;68773;-66
2022/05/26 10:52:46;;;;;;;7.10;1.60;;;;;;;22.11;40.26;99347.52;104748;1271;74581;-69
2022/05/26 10:55:49;;;;;;;8.50;1.40;;;;;;;21.26;42.23;99350.08;104989;1271;59723;-71
2022/05/26 10:58:44;;;;;;;8.40;1.30;;;;;;;20.35;43.76;99355.05;104951;1271;61505;-67
2022/05/26 11:01:42;;;;;;;7.30;1.30;;;;;;;19.41;45.69;99357.46;105151;1271;74858;-68
2022/05/26 11:04:41;;;;;;;7.50;1.40;;;;;;;18.67;47.64;99356.80;104932;1270;69329;-65
2022/05/26 11:07:40;;;;;;;7.40;1.50;;;;;;;18.12;49.58;99365.75;105198;1271;73487;-69
2022/05/26 11:10:47;;;;;;;8.80;1.50;;;;;;;17.61;51.15;99376.78;105251;1271;59640;-70
2022/05/26 11:13:44;;;;;;;6.50;1.80;;;;;;;17.17;51.63;99372.36;105224;1271;59694;-69
2022/05/26 11:20:06;;;;;;;7.50;1.90;;;;;;;18.03;51.26;99369.57;104972;1271;68138;-66
2022/05/26 11:22:53;;;;;;;7.60;1.60;;;;;;;19.13;47.97;99368.38;104707;1271;73836;-70
2022/05/26 11:25:56;;;;;;;7.00;1.20;;;;;;;19.45;47.17;99358.01;105041;1271;59642;-69
2022/05/26 11:28:58;;;;;;;6.70;1.60;;;;;;;19.78;46.70;99342.23;105299;1271;59534;-70
2022/05/26 11:38:44;;;;;;;6.00;1.30;;;;;;;18.75;45.54;99355.94;105031;1271;73711;-70
2022/05/26 11:41:54;;;;;;;6.20;1.20;;;;;;;18.61;47.01;99365.68;104856;1271;60765;-71
2022/05/26 11:44:44;;;;;;;11.80;4.80;;;;;;;18.07;46.96;99379.22;104972;1271;62059;-69
2022/05/26 11:47:52;;;;;;;6.80;1.30;;;;;;;17.57;47.97;99376.93;105200;1271;74521;-68
2022/05/26 11:50:42;;;;;;;6.50;1.40;;;;;;;17.28;48.68;99378.70;105184;1271;68224;-68
2022/05/26 11:53:32;;;;;;;8.20;2.10;;;;;;;16.87;49.33;99400.07;105037;1271;73361;-69
2022/05/26 11:56:45;;;;;;;8.80;1.60;;;;;;;16.47;50.49;99392.94;104887;1271;59755;-68
2022/05/26 11:59:34;;;;;;;6.60;1.20;;;;;;;16.27;51.63;99401.89;104883;1277;61795;-71
2022/05/26 12:02:31;;;;;;;7.30;1.40;;;;;;;16.09;52.17;99393.99;104840;1278;74159;-69
2022/05/26 12:05:29;;;;;;;7.50;1.30;;;;;;;16.08;52.35;99397.98;104424;1277;69015;-68
2022/05/26 12:08:31;;;;;;;5.00;1.20;;;;;;;16.10;51.94;99395.13;104711;1277;73551;-72
2022/05/26 12:11:22;;;;;;;7.20;1.40;;;;;;;16.25;51.70;99396.96;104639;1278;59599;-72
2022/05/26 12:14:21;;;;;;;8.30;1.50;;;;;;;16.38;51.16;99394.46;104435;1277;59588;-74
2022/05/26 12:17:48;;;;;;;6.10;1.20;;;;;;;16.59;50.73;99388.52;104317;1280;73557;-72
2022/05/26 12:20:41;;;;;;;7.40;1.20;;;;;;;16.79;49.50;99388.14;104492;1277;68670;-70
2022/05/26 12:23:28;;;;;;;6.60;1.20;;;;;;;16.92;49.43;99384.27;104445;1277;72390;-70
2022/05/26 12:26:47;;;;;;;9.70;1.80;;;;;;;17.12;49.18;99373.95;104354;1280;59692;-71
2022/05/26 12:29:48;;;;;;;7.70;1.40;;;;;;;17.15;48.72;99369.95;104417;1278;60851;-73
2022/05/26 12:32:38;;;;;;;8.40;1.60;;;;;;;17.07;46.97;99380.15;104794;1277;71220;-73
2022/05/26 12:35:43;;;;;;;9.20;1.60;;;;;;;16.91;45.84;99395.44;104489;1278;68125;-72
2022/05/26 12:38:49;;;;;;;9.10;1.50;;;;;;;16.97;44.89;99384.54;104925;1271;73780;-73
2022/05/26 12:42:04;;;;;;;8.10;1.50;;;;;;;16.99;45.04;99385.17;105125;1271;59645;-73
2022/05/26 12:45:32;;;;;;;9.20;1.80;;;;;;;17.21;45.04;99385.95;105022;1271;61987;-71
2022/05/26 12:49:05;;;;;;;6.80;1.20;;;;;;;17.10;45.70;99406.34;105356;1271;74918;-73
2022/05/26 12:52:23;;;;;;;10.30;2.80;;;;;;;17.12;45.06;99410.30;105050;1271;67237;-70
2022/05/26 12:55:38;;;;;;;9.70;1.60;;;;;;;17.03;44.67;99400.77;104984;1271;72257;-70
2022/05/26 12:58:31;;;;;;;9.20;1.30;;;;;;;17.02;44.40;99405.15;105180;1271;59694;-70
2022/05/26 13:01:21;;;;;;;7.40;1.10;;;;;;;17.02;44.47;99393.52;105068;1271;60233;-72
2022/05/26 13:04:22;;;;;;;9.00;1.30;;;;;;;16.94;44.72;99399.63;104777;1271;73254;-71
2022/05/26 13:07:10;;;;;;;7.70;1.30;;;;;;;16.88;45.93;99404.06;104867;1271;68628;-70
2022/05/26 13:09:57;;;;;;;7.00;1.30;;;;;;;16.75;45.87;99403.39;104913;1271;73539;-70
2022/05/26 13:12:46;;;;;;;6.80;1.20;;;;;;;16.74;44.92;99400.80;104851;1271;59836;-67
2022/05/26 13:15:37;;;;;;;12.40;1.50;;;;;;;16.81;45.38;99402.60;104944;1271;60526;-74
2022/05/26 13:18:26;;;;;;;10.90;1.20;;;;;;;16.69;44.97;99397.81;105034;1271;75040;-71
2022/05/26 13:21:22;;;;;;;7.70;1.20;;;;;;;16.74;44.57;99402.17;105122;1271;66850;-72
2022/05/26 13:24:18;;;;;;;9.00;1.20;;;;;;;16.72;43.94;99402.23;105476;1271;73352;-72
2022/05/26 13:27:11;;;;;;;7.30;1.10;;;;;;;16.63;44.20;99411.38;105108;1271;59648;-71
2022/05/26 13:33:07;;;;;;;6.90;1.10;;;;;;;16.47;44.51;99409.91;105343;1271;59741;-71
2022/05/26 13:33:09;;;;;;;6.90;1.10;;;;;;;16.40;45.39;99411.02;105148;1271;74662;-71
2022/05/26 13:36:04;;;;;;;6.30;1.30;;;;;;;16.63;45.60;99416.16;105166;1271;68628;-73
2022/05/26 13:38:51;;;;;;;7.90;1.10;;;;;;;16.70;44.26;99418.04;105202;1271;73652;-70
2022/05/26 13:41:41;;;;;;;8.90;1.30;;;;;;;16.69;43.66;99416.39;104920;1271;59682;-73
2022/05/26 13:44:37;;;;;;;12.50;2.00;;;;;;;16.73;43.76;99409.17;105168;1271;61925;-71
2022/05/26 13:47:24;;;;;;;8.30;1.40;;;;;;;16.68;44.24;99414.73;105249;1271;72961;-70
2022/05/26 13:50:12;;;;;;;9.40;1.60;;;;;;;16.54;43.85;99408.31;104969;1271;68891;-71
2022/05/26 13:52:58;;;;;;;5.70;1.10;;;;;;;16.41;43.21;99421.52;104847;1271;74213;-70
2022/05/26 13:55:47;;;;;;;9.60;2.00;;;;;;;16.26;43.09;99424.23;105312;1271;59700;-72
2022/05/26 13:58:36;;;;;;;9.50;1.40;;;;;;;16.17;43.59;99424.87;105128;1271;61129;-71
2022/05/26 14:01:25;;;;;;;7.80;1.40;;;;;;;16.12;44.49;99420.75;104940;1272;74527;-70
2022/05/26 14:04:37;;;;;;;6.70;1.20;;;;;;;16.08;44.74;99423.00;104969;1271;68666;-72
2022/05/26 14:07:36;;;;;;;7.20;1.30;;;;;;;16.28;45.35;99424.41;105276;1269;73720;-68
2022/05/26 14:10:51;;;;;;;10.70;1.40;;;;;;;16.55;45.63;99416.23;104951;1271;59719;-72
2022/05/26 14:13:38;;;;;;;8.20;1.50;;;;;;;16.71;45.26;99413.51;105071;1271;60591;-70
2022/05/26 14:16:28;;;;;;;11.30;1.40;;;;;;;16.67;44.35;99420.34;104929;1271;72517;-70
2022/05/26 14:19:19;;;;;;;9.30;1.30;;;;;;;16.59;44.11;99421.13;105108;1271;68356;-71
2022/05/26 14:22:06;;;;;;;7.50;1.20;;;;;;;16.47;44.12;99418.11;105089;1271;73382;-70
2022/05/26 14:24:57;;;;;;;8.60;1.40;;;;;;;16.41;44.07;99412.59;105146;1271;60106;-71